sensor_id;sensor_type;location;lat;lon;timestamp;P1;durP1;ratioP1;P2;durP2;ratioP2
50647;SDS011;70221;52.002;6.034;2023-05-17T00:01:11;3.90;;;1.47;;
50647;SDS011;70221;52.002;6.034;2023-05-17T00:03:36;3.57;;;1.30;;
50647;SDS011;70221;52.002;6.034;2023-05-17T00:06:01;3.33;;;1.30;;
50647;SDS011;70221;52.002;6.034;2023-05-17T00:08:26;4.17;;;1.40;;
50647;SDS011;70221;52.002;6.034;2023-05-17T00:10:51;4.05;;;1.52;;
50647;SDS011;70221;52.002;6.034;2023-05-17T00:13:16;3.47;;;1.33;;
50647;SDS011;70221;52.002;6.034;2023-05-17T00:15:42;4.13;;;1.40;;
50647;SDS011;70221;52.002;6.034;2023-05-17T00:18:07;3.67;;;1.30;;
50647;SDS011;70221;52.002;6.034;2023-05-17T00:20:32;3.37;;;1.40;;
50647;SDS011;70221;52.002;6.034;2023-05-17T00:22:58;3.78;;;1.50;;
50647;SDS011;70221;52.002;6.034;2023-05-17T00:25:24;3.65;;;1.42;;
50647;SDS011;70221;52.002;6.034;2023-05-17T00:27:49;5.47;;;1.60;;
50647;SDS011;70221;52.002;6.034;2023-05-17T00:30:15;4.23;;;1.53;;
50647;SDS011;70221;52.002;6.034;2023-05-17T00:32:40;3.87;;;1.40;;
50647;SDS011;70221;52.002;6.034;2023-05-17T00:35:05;3.77;;;1.50;;
50647;SDS011;70221;52.002;6.034;2023-05-17T00:37:30;4.20;;;1.45;;
50647;SDS011;70221;52.002;6.034;2023-05-17T00:39:55;4.70;;;1.50;;
50647;SDS011;70221;52.002;6.034;2023-05-17T00:42:21;3.80;;;1.50;;
50647;SDS011;70221;52.002;6.034;2023-05-17T00:44:46;4.93;;;1.70;;
50647;SDS011;70221;52.002;6.034;2023-05-17T00:47:11;4.37;;;1.40;;
50647;SDS011;70221;52.002;6.034;2023-05-17T00:49:36;3.90;;;1.50;;
50647;SDS011;70221;52.002;6.034;2023-05-17T00:52:01;3.60;;;1.50;;
50647;SDS011;70221;52.002;6.034;2023-05-17T00:54:27;4.67;;;1.70;;
50647;SDS011;70221;52.002;6.034;2023-05-17T00:56:52;3.87;;;1.50;;
50647;SDS011;70221;52.002;6.034;2023-05-17T00:59:18;4.47;;;1.60;;
50647;SDS011;70221;52.002;6.034;2023-05-17T01:01:45;4.53;;;1.60;;
50647;SDS011;70221;52.002;6.034;2023-05-17T01:04:10;4.82;;;1.40;;
50647;SDS011;70221;52.002;6.034;2023-05-17T01:06:36;4.70;;;1.50;;
50647;SDS011;70221;52.002;6.034;2023-05-17T01:09:04;4.10;;;1.60;;
50647;SDS011;70221;52.002;6.034;2023-05-17T01:14:26;4.50;;;1.65;;
50647;SDS011;70221;52.002;6.034;2023-05-17T01:16:54;5.07;;;1.63;;
50647;SDS011;70221;52.002;6.034;2023-05-17T01:24:32;4.30;;;1.70;;
50647;SDS011;70221;52.002;6.034;2023-05-17T01:27:04;4.10;;;1.60;;
50647;SDS011;70221;52.002;6.034;2023-05-17T01:29:30;4.18;;;1.75;;
50647;SDS011;70221;52.002;6.034;2023-05-17T01:31:56;3.55;;;1.55;;
50647;SDS011;70221;52.002;6.034;2023-05-17T01:34:24;5.28;;;1.63;;
50647;SDS011;70221;52.002;6.034;2023-05-17T01:36:49;3.55;;;1.40;;
50647;SDS011;70221;52.002;6.034;2023-05-17T01:39:14;4.33;;;1.70;;
50647;SDS011;70221;52.002;6.034;2023-05-17T01:41:39;3.43;;;1.67;;
50647;SDS011;70221;52.002;6.034;2023-05-17T01:44:08;4.47;;;1.70;;
50647;SDS011;70221;52.002;6.034;2023-05-17T01:46:38;5.10;;;1.85;;
50647;SDS011;70221;52.002;6.034;2023-05-17T01:49:10;4.70;;;1.70;;
50647;SDS011;70221;52.002;6.034;2023-05-17T01:51:45;4.43;;;1.80;;
50647;SDS011;70221;52.002;6.034;2023-05-17T01:54:11;5.88;;;1.75;;
50647;SDS011;70221;52.002;6.034;2023-05-17T01:56:40;5.05;;;1.95;;
50647;SDS011;70221;52.002;6.034;2023-05-17T01:59:06;4.13;;;1.60;;
50647;SDS011;70221;52.002;6.034;2023-05-17T02:01:32;4.07;;;1.70;;
50647;SDS011;70221;52.002;6.034;2023-05-17T02:03:59;4.63;;;1.75;;
50647;SDS011;70221;52.002;6.034;2023-05-17T02:06:24;4.57;;;1.80;;
50647;SDS011;70221;52.002;6.034;2023-05-17T02:08:49;5.23;;;1.80;;
50647;SDS011;70221;52.002;6.034;2023-05-17T02:11:14;5.07;;;1.73;;
50647;SDS011;70221;52.002;6.034;2023-05-17T02:13:40;4.63;;;1.63;;
50647;SDS011;70221;52.002;6.034;2023-05-17T02:16:05;5.33;;;1.80;;
50647;SDS011;70221;52.002;6.034;2023-05-17T02:18:30;5.45;;;1.80;;
50647;SDS011;70221;52.002;6.034;2023-05-17T02:20:56;4.65;;;1.65;;
50647;SDS011;70221;52.002;6.034;2023-05-17T02:23:21;4.53;;;1.73;;
50647;SDS011;70221;52.002;6.034;2023-05-17T02:25:48;4.18;;;1.75;;
50647;SDS011;70221;52.002;6.034;2023-05-17T02:28:14;5.37;;;1.80;;
50647;SDS011;70221;52.002;6.034;2023-05-17T02:30:39;4.53;;;1.70;;
50647;SDS011;70221;52.002;6.034;2023-05-17T02:33:07;5.03;;;1.80;;
50647;SDS011;70221;52.002;6.034;2023-05-17T02:35:32;5.33;;;1.80;;
50647;SDS011;70221;52.002;6.034;2023-05-17T02:37:58;4.65;;;1.73;;
50647;SDS011;70221;52.002;6.034;2023-05-17T02:40:23;5.90;;;1.90;;
50647;SDS011;70221;52.002;6.034;2023-05-17T02:42:48;4.70;;;1.80;;
50647;SDS011;70221;52.002;6.034;2023-05-17T02:45:13;4.53;;;1.60;;
50647;SDS011;70221;52.002;6.034;2023-05-17T02:47:38;6.03;;;2.00;;
50647;SDS011;70221;52.002;6.034;2023-05-17T02:50:04;6.27;;;1.90;;
50647;SDS011;70221;52.002;6.034;2023-05-17T02:52:29;4.83;;;1.83;;
50647;SDS011;70221;52.002;6.034;2023-05-17T02:54:54;4.37;;;1.80;;
50647;SDS011;70221;52.002;6.034;2023-05-17T02:57:19;5.73;;;1.83;;
50647;SDS011;70221;52.002;6.034;2023-05-17T02:59:44;5.07;;;1.90;;
50647;SDS011;70221;52.002;6.034;2023-05-17T03:02:10;5.07;;;1.80;;
50647;SDS011;70221;52.002;6.034;2023-05-17T03:04:35;5.37;;;1.80;;
50647;SDS011;70221;52.002;6.034;2023-05-17T03:07:00;4.93;;;2.00;;
50647;SDS011;70221;52.002;6.034;2023-05-17T03:09:25;4.50;;;1.80;;
50647;SDS011;70221;52.002;6.034;2023-05-17T03:11:53;5.80;;;2.00;;
50647;SDS011;70221;52.002;6.034;2023-05-17T03:14:18;4.50;;;1.80;;
50647;SDS011;70221;52.002;6.034;2023-05-17T03:16:43;5.60;;;2.00;;
50647;SDS011;70221;52.002;6.034;2023-05-17T03:19:09;4.93;;;1.97;;
50647;SDS011;70221;52.002;6.034;2023-05-17T03:21:34;6.20;;;2.30;;
50647;SDS011;70221;52.002;6.034;2023-05-17T03:23:59;4.73;;;1.80;;
50647;SDS011;70221;52.002;6.034;2023-05-17T03:26:24;4.33;;;1.87;;
50647;SDS011;70221;52.002;6.034;2023-05-17T03:28:51;4.15;;;1.70;;
50647;SDS011;70221;52.002;6.034;2023-05-17T03:31:16;5.47;;;2.00;;
50647;SDS011;70221;52.002;6.034;2023-05-17T03:33:41;5.87;;;2.10;;
50647;SDS011;70221;52.002;6.034;2023-05-17T03:36:06;4.57;;;1.80;;
50647;SDS011;70221;52.002;6.034;2023-05-17T03:38:32;5.00;;;1.90;;
50647;SDS011;70221;52.002;6.034;2023-05-17T03:40:57;5.40;;;2.03;;
50647;SDS011;70221;52.002;6.034;2023-05-17T03:43:22;4.72;;;1.80;;
50647;SDS011;70221;52.002;6.034;2023-05-17T03:45:48;5.03;;;2.10;;
50647;SDS011;70221;52.002;6.034;2023-05-17T03:48:13;4.50;;;1.80;;
50647;SDS011;70221;52.002;6.034;2023-05-17T03:50:38;4.65;;;2.00;;
50647;SDS011;70221;52.002;6.034;2023-05-17T03:53:05;6.07;;;2.13;;
50647;SDS011;70221;52.002;6.034;2023-05-17T03:55:30;5.37;;;2.10;;
50647;SDS011;70221;52.002;6.034;2023-05-17T03:57:55;5.67;;;2.10;;
50647;SDS011;70221;52.002;6.034;2023-05-17T04:00:20;5.17;;;2.00;;
50647;SDS011;70221;52.002;6.034;2023-05-17T04:02:46;4.70;;;1.90;;
50647;SDS011;70221;52.002;6.034;2023-05-17T04:05:11;5.63;;;2.00;;
50647;SDS011;70221;52.002;6.034;2023-05-17T04:07:37;5.53;;;2.10;;
50647;SDS011;70221;52.002;6.034;2023-05-17T04:10:02;5.20;;;2.10;;
50647;SDS011;70221;52.002;6.034;2023-05-17T04:12:27;4.90;;;1.77;;
50647;SDS011;70221;52.002;6.034;2023-05-17T04:14:52;5.43;;;1.97;;
50647;SDS011;70221;52.002;6.034;2023-05-17T04:17:18;4.93;;;1.90;;
50647;SDS011;70221;52.002;6.034;2023-05-17T04:19:43;4.90;;;1.90;;
50647;SDS011;70221;52.002;6.034;2023-05-17T04:22:08;6.57;;;2.20;;
50647;SDS011;70221;52.002;6.034;2023-05-17T04:24:33;4.33;;;1.83;;
50647;SDS011;70221;52.002;6.034;2023-05-17T04:26:58;5.63;;;2.00;;
50647;SDS011;70221;52.002;6.034;2023-05-17T04:29:23;5.97;;;2.10;;
50647;SDS011;70221;52.002;6.034;2023-05-17T04:31:49;4.73;;;1.93;;
50647;SDS011;70221;52.002;6.034;2023-05-17T04:34:14;5.63;;;2.08;;
50647;SDS011;70221;52.002;6.034;2023-05-17T04:36:40;4.87;;;1.80;;
50647;SDS011;70221;52.002;6.034;2023-05-17T04:39:05;4.63;;;1.80;;
50647;SDS011;70221;52.002;6.034;2023-05-17T04:41:31;4.73;;;1.90;;
50647;SDS011;70221;52.002;6.034;2023-05-17T04:43:57;4.93;;;2.10;;
50647;SDS011;70221;52.002;6.034;2023-05-17T04:46:22;4.53;;;1.90;;
50647;SDS011;70221;52.002;6.034;2023-05-17T04:48:47;4.80;;;1.83;;
50647;SDS011;70221;52.002;6.034;2023-05-17T04:51:13;4.55;;;1.90;;
50647;SDS011;70221;52.002;6.034;2023-05-17T04:53:38;5.17;;;1.90;;
50647;SDS011;70221;52.002;6.034;2023-05-17T04:56:03;5.10;;;2.10;;
50647;SDS011;70221;52.002;6.034;2023-05-17T04:58:28;5.10;;;2.00;;
50647;SDS011;70221;52.002;6.034;2023-05-17T05:00:53;5.07;;;1.87;;
50647;SDS011;70221;52.002;6.034;2023-05-17T05:03:19;5.57;;;2.23;;
50647;SDS011;70221;52.002;6.034;2023-05-17T05:05:46;5.43;;;2.08;;
50647;SDS011;70221;52.002;6.034;2023-05-17T05:08:11;4.90;;;2.00;;
50647;SDS011;70221;52.002;6.034;2023-05-17T05:10:36;6.07;;;2.13;;
50647;SDS011;70221;52.002;6.034;2023-05-17T05:13:01;4.63;;;1.93;;
50647;SDS011;70221;52.002;6.034;2023-05-17T05:15:26;4.37;;;1.90;;
50647;SDS011;70221;52.002;6.034;2023-05-17T05:17:52;5.63;;;2.30;;
50647;SDS011;70221;52.002;6.034;2023-05-17T05:20:17;4.82;;;2.10;;
50647;SDS011;70221;52.002;6.034;2023-05-17T05:22:42;5.20;;;2.00;;
50647;SDS011;70221;52.002;6.034;2023-05-17T05:25:07;5.47;;;2.40;;
50647;SDS011;70221;52.002;6.034;2023-05-17T05:27:33;5.05;;;2.20;;
50647;SDS011;70221;52.002;6.034;2023-05-17T05:29:59;5.15;;;2.05;;
50647;SDS011;70221;52.002;6.034;2023-05-17T05:32:25;5.27;;;2.20;;
50647;SDS011;70221;52.002;6.034;2023-05-17T05:34:50;6.10;;;2.13;;
50647;SDS011;70221;52.002;6.034;2023-05-17T05:37:15;5.30;;;2.20;;
50647;SDS011;70221;52.002;6.034;2023-05-17T05:39:40;4.70;;;2.20;;
50647;SDS011;70221;52.002;6.034;2023-05-17T05:42:05;5.53;;;2.33;;
50647;SDS011;70221;52.002;6.034;2023-05-17T05:44:31;6.07;;;2.40;;
50647;SDS011;70221;52.002;6.034;2023-05-17T05:46:56;4.97;;;2.30;;
50647;SDS011;70221;52.002;6.034;2023-05-17T05:49:21;4.90;;;2.23;;
50647;SDS011;70221;52.002;6.034;2023-05-17T05:51:46;5.20;;;2.33;;
50647;SDS011;70221;52.002;6.034;2023-05-17T05:54:12;5.93;;;2.30;;
50647;SDS011;70221;52.002;6.034;2023-05-17T05:56:37;5.70;;;2.42;;
50647;SDS011;70221;52.002;6.034;2023-05-17T05:59:02;5.23;;;2.20;;
50647;SDS011;70221;52.002;6.034;2023-05-17T06:01:27;6.37;;;2.40;;
50647;SDS011;70221;52.002;6.034;2023-05-17T06:03:53;8.88;;;2.90;;
50647;SDS011;70221;52.002;6.034;2023-05-17T06:06:18;9.47;;;2.63;;
50647;SDS011;70221;52.002;6.034;2023-05-17T06:08:44;12.17;;;2.60;;
50647;SDS011;70221;52.002;6.034;2023-05-17T06:11:11;11.82;;;2.53;;
50647;SDS011;70221;52.002;6.034;2023-05-17T06:13:36;11.50;;;2.40;;
50647;SDS011;70221;52.002;6.034;2023-05-17T06:16:01;13.23;;;2.70;;
50647;SDS011;70221;52.002;6.034;2023-05-17T06:18:26;11.83;;;2.53;;
50647;SDS011;70221;52.002;6.034;2023-05-17T06:20:52;9.83;;;2.60;;
50647;SDS011;70221;52.002;6.034;2023-05-17T06:23:17;12.83;;;2.63;;
50647;SDS011;70221;52.002;6.034;2023-05-17T06:25:42;13.40;;;2.40;;
50647;SDS011;70221;52.002;6.034;2023-05-17T06:28:07;10.13;;;2.13;;
50647;SDS011;70221;52.002;6.034;2023-05-17T06:30:33;12.13;;;2.42;;
50647;SDS011;70221;52.002;6.034;2023-05-17T06:32:58;10.63;;;2.20;;
50647;SDS011;70221;52.002;6.034;2023-05-17T06:35:23;10.00;;;2.23;;
50647;SDS011;70221;52.002;6.034;2023-05-17T06:37:49;11.83;;;2.57;;
50647;SDS011;70221;52.002;6.034;2023-05-17T06:40:14;10.73;;;2.33;;
50647;SDS011;70221;52.002;6.034;2023-05-17T06:42:39;10.00;;;2.20;;
50647;SDS011;70221;52.002;6.034;2023-05-17T06:45:05;9.82;;;2.10;;
50647;SDS011;70221;52.002;6.034;2023-05-17T06:47:30;11.50;;;2.42;;
50647;SDS011;70221;52.002;6.034;2023-05-17T06:49:55;8.90;;;2.00;;
50647;SDS011;70221;52.002;6.034;2023-05-17T06:52:21;8.33;;;2.00;;
50647;SDS011;70221;52.002;6.034;2023-05-17T06:54:46;8.38;;;1.90;;
50647;SDS011;70221;52.002;6.034;2023-05-17T06:57:11;12.70;;;2.37;;
50647;SDS011;70221;52.002;6.034;2023-05-17T06:59:36;12.07;;;2.23;;
50647;SDS011;70221;52.002;6.034;2023-05-17T07:02:02;10.33;;;2.10;;
50647;SDS011;70221;52.002;6.034;2023-05-17T07:04:27;11.53;;;2.17;;
50647;SDS011;70221;52.002;6.034;2023-05-17T07:06:52;11.47;;;2.20;;
50647;SDS011;70221;52.002;6.034;2023-05-17T07:09:18;10.90;;;1.93;;
50647;SDS011;70221;52.002;6.034;2023-05-17T07:11:43;10.55;;;2.10;;
50647;SDS011;70221;52.002;6.034;2023-05-17T07:14:09;9.87;;;2.03;;
50647;SDS011;70221;52.002;6.034;2023-05-17T07:16:34;8.33;;;1.70;;
50647;SDS011;70221;52.002;6.034;2023-05-17T07:18:59;10.13;;;2.00;;
50647;SDS011;70221;52.002;6.034;2023-05-17T07:21:24;8.97;;;1.97;;
50647;SDS011;70221;52.002;6.034;2023-05-17T07:23:49;9.57;;;1.90;;
50647;SDS011;70221;52.002;6.034;2023-05-17T07:26:17;11.57;;;2.00;;
50647;SDS011;70221;52.002;6.034;2023-05-17T07:28:42;10.25;;;1.83;;
50647;SDS011;70221;52.002;6.034;2023-05-17T07:31:08;6.85;;;1.83;;
50647;SDS011;70221;52.002;6.034;2023-05-17T07:33:33;8.50;;;1.70;;
50647;SDS011;70221;52.002;6.034;2023-05-17T07:35:58;9.03;;;2.00;;
50647;SDS011;70221;52.002;6.034;2023-05-17T07:38:23;10.20;;;1.90;;
50647;SDS011;70221;52.002;6.034;2023-05-17T07:40:48;10.33;;;2.00;;
50647;SDS011;70221;52.002;6.034;2023-05-17T07:43:14;9.03;;;1.90;;
50647;SDS011;70221;52.002;6.034;2023-05-17T07:45:39;7.87;;;1.70;;
50647;SDS011;70221;52.002;6.034;2023-05-17T07:48:04;6.53;;;1.70;;
50647;SDS011;70221;52.002;6.034;2023-05-17T07:50:29;8.93;;;1.93;;
50647;SDS011;70221;52.002;6.034;2023-05-17T07:52:55;9.80;;;1.83;;
50647;SDS011;70221;52.002;6.034;2023-05-17T07:55:20;12.23;;;1.90;;
50647;SDS011;70221;52.002;6.034;2023-05-17T07:57:45;12.43;;;2.27;;
50647;SDS011;70221;52.002;6.034;2023-05-17T08:00:12;10.57;;;1.75;;
50647;SDS011;70221;52.002;6.034;2023-05-17T08:02:38;8.13;;;1.57;;
50647;SDS011;70221;52.002;6.034;2023-05-17T08:05:03;9.10;;;1.80;;
50647;SDS011;70221;52.002;6.034;2023-05-17T08:07:29;8.33;;;1.60;;
50647;SDS011;70221;52.002;6.034;2023-05-17T08:09:54;7.60;;;1.87;;
50647;SDS011;70221;52.002;6.034;2023-05-17T08:12:19;8.90;;;1.83;;
50647;SDS011;70221;52.002;6.034;2023-05-17T08:14:44;9.00;;;1.77;;
50647;SDS011;70221;52.002;6.034;2023-05-17T08:17:10;7.43;;;1.90;;
50647;SDS011;70221;52.002;6.034;2023-05-17T08:19:35;8.17;;;1.80;;
50647;SDS011;70221;52.002;6.034;2023-05-17T08:22:01;16.50;;;2.50;;
50647;SDS011;70221;52.002;6.034;2023-05-17T08:24:26;9.80;;;2.10;;
50647;SDS011;70221;52.002;6.034;2023-05-17T08:26:51;9.27;;;1.90;;
50647;SDS011;70221;52.002;6.034;2023-05-17T08:29:17;8.63;;;1.95;;
50647;SDS011;70221;52.002;6.034;2023-05-17T08:31:42;6.47;;;1.57;;
50647;SDS011;70221;52.002;6.034;2023-05-17T08:34:07;9.70;;;1.90;;
50647;SDS011;70221;52.002;6.034;2023-05-17T08:36:32;9.63;;;1.90;;
50647;SDS011;70221;52.002;6.034;2023-05-17T08:38:58;6.78;;;1.35;;
50647;SDS011;70221;52.002;6.034;2023-05-17T08:41:23;8.43;;;1.80;;
50647;SDS011;70221;52.002;6.034;2023-05-17T08:43:48;5.27;;;1.23;;
50647;SDS011;70221;52.002;6.034;2023-05-17T08:46:15;8.25;;;1.50;;
50647;SDS011;70221;52.002;6.034;2023-05-17T08:48:41;6.38;;;1.55;;
50647;SDS011;70221;52.002;6.034;2023-05-17T08:51:07;6.13;;;1.67;;
50647;SDS011;70221;52.002;6.034;2023-05-17T08:53:32;9.03;;;1.77;;
50647;SDS011;70221;52.002;6.034;2023-05-17T08:55:59;8.27;;;1.70;;
50647;SDS011;70221;52.002;6.034;2023-05-17T08:58:30;9.05;;;1.88;;
50647;SDS011;70221;52.002;6.034;2023-05-17T09:00:57;8.73;;;1.70;;
50647;SDS011;70221;52.002;6.034;2023-05-17T09:03:23;7.72;;;1.85;;
50647;SDS011;70221;52.002;6.034;2023-05-17T09:05:49;7.90;;;1.70;;
50647;SDS011;70221;52.002;6.034;2023-05-17T09:08:16;6.93;;;1.70;;
50647;SDS011;70221;52.002;6.034;2023-05-17T09:10:42;8.10;;;1.80;;
50647;SDS011;70221;52.002;6.034;2023-05-17T09:13:11;6.77;;;1.50;;
50647;SDS011;70221;52.002;6.034;2023-05-17T09:15:41;7.88;;;1.90;;
50647;SDS011;70221;52.002;6.034;2023-05-17T09:18:08;9.82;;;2.05;;
50647;SDS011;70221;52.002;6.034;2023-05-17T09:20:34;10.30;;;2.08;;
50647;SDS011;70221;52.002;6.034;2023-05-17T09:23:00;7.35;;;1.63;;
50647;SDS011;70221;52.002;6.034;2023-05-17T09:25:27;7.88;;;1.70;;
50647;SDS011;70221;52.002;6.034;2023-05-17T09:27:52;8.65;;;1.73;;
50647;SDS011;70221;52.002;6.034;2023-05-17T09:30:18;7.87;;;1.60;;
50647;SDS011;70221;52.002;6.034;2023-05-17T09:32:43;7.33;;;1.83;;
50647;SDS011;70221;52.002;6.034;2023-05-17T09:35:10;6.28;;;1.52;;
50647;SDS011;70221;52.002;6.034;2023-05-17T09:37:36;7.33;;;1.67;;
50647;SDS011;70221;52.002;6.034;2023-05-17T09:40:02;6.47;;;1.58;;
50647;SDS011;70221;52.002;6.034;2023-05-17T09:42:28;6.85;;;1.48;;
50647;SDS011;70221;52.002;6.034;2023-05-17T09:44:56;6.90;;;1.47;;
50647;SDS011;70221;52.002;6.034;2023-05-17T09:47:25;6.50;;;1.33;;
50647;SDS011;70221;52.002;6.034;2023-05-17T09:49:50;7.60;;;1.70;;
50647;SDS011;70221;52.002;6.034;2023-05-17T09:52:16;8.13;;;1.37;;
50647;SDS011;70221;52.002;6.034;2023-05-17T09:54:42;7.07;;;1.50;;
50647;SDS011;70221;52.002;6.034;2023-05-17T09:57:07;6.38;;;1.50;;
50647;SDS011;70221;52.002;6.034;2023-05-17T09:59:34;7.63;;;1.50;;
50647;SDS011;70221;52.002;6.034;2023-05-17T10:01:59;8.43;;;1.70;;
50647;SDS011;70221;52.002;6.034;2023-05-17T10:04:25;6.15;;;1.50;;
50647;SDS011;70221;52.002;6.034;2023-05-17T10:06:53;7.35;;;1.60;;
50647;SDS011;70221;52.002;6.034;2023-05-17T10:09:20;6.63;;;1.47;;
50647;SDS011;70221;52.002;6.034;2023-05-17T10:11:45;6.50;;;1.43;;
50647;SDS011;70221;52.002;6.034;2023-05-17T10:14:25;9.27;;;1.73;;
50647;SDS011;70221;52.002;6.034;2023-05-17T10:16:51;7.50;;;1.63;;
50647;SDS011;70221;52.002;6.034;2023-05-17T10:19:17;6.85;;;1.40;;
50647;SDS011;70221;52.002;6.034;2023-05-17T10:21:45;7.53;;;1.75;;
50647;SDS011;70221;52.002;6.034;2023-05-17T10:24:11;6.87;;;1.60;;
50647;SDS011;70221;52.002;6.034;2023-05-17T10:26:37;5.23;;;1.40;;
50647;SDS011;70221;52.002;6.034;2023-05-17T10:29:02;8.43;;;1.67;;
50647;SDS011;70221;52.002;6.034;2023-05-17T10:31:28;6.97;;;1.70;;
50647;SDS011;70221;52.002;6.034;2023-05-17T10:33:54;9.05;;;1.75;;
50647;SDS011;70221;52.002;6.034;2023-05-17T10:36:19;5.80;;;1.50;;
50647;SDS011;70221;52.002;6.034;2023-05-17T10:38:45;6.65;;;1.60;;
50647;SDS011;70221;52.002;6.034;2023-05-17T10:41:11;8.50;;;1.70;;
50647;SDS011;70221;52.002;6.034;2023-05-17T10:43:37;7.70;;;1.53;;
50647;SDS011;70221;52.002;6.034;2023-05-17T10:46:10;6.47;;;1.60;;
50647;SDS011;70221;52.002;6.034;2023-05-17T10:48:35;7.18;;;1.50;;
50647;SDS011;70221;52.002;6.034;2023-05-17T10:51:05;7.80;;;1.80;;
50647;SDS011;70221;52.002;6.034;2023-05-17T10:53:30;6.13;;;1.50;;
50647;SDS011;70221;52.002;6.034;2023-05-17T10:55:55;7.13;;;1.73;;
50647;SDS011;70221;52.002;6.034;2023-05-17T10:58:22;6.57;;;1.40;;
50647;SDS011;70221;52.002;6.034;2023-05-17T11:00:50;7.28;;;1.67;;
50647;SDS011;70221;52.002;6.034;2023-05-17T11:03:18;7.95;;;1.40;;
50647;SDS011;70221;52.002;6.034;2023-05-17T11:05:44;7.28;;;1.40;;
50647;SDS011;70221;52.002;6.034;2023-05-17T11:08:29;9.10;;;1.60;;
50647;SDS011;70221;52.002;6.034;2023-05-17T11:11:07;10.47;;;1.70;;
50647;SDS011;70221;52.002;6.034;2023-05-17T11:13:33;6.97;;;1.50;;
50647;SDS011;70221;52.002;6.034;2023-05-17T11:16:02;9.60;;;1.40;;
50647;SDS011;70221;52.002;6.034;2023-05-17T11:18:44;6.65;;;1.50;;
50647;SDS011;70221;52.002;6.034;2023-05-17T11:21:09;7.43;;;1.30;;
50647;SDS011;70221;52.002;6.034;2023-05-17T11:23:37;6.50;;;1.40;;
50647;SDS011;70221;52.002;6.034;2023-05-17T11:26:16;7.07;;;1.42;;
50647;SDS011;70221;52.002;6.034;2023-05-17T11:28:42;6.30;;;1.30;;
50647;SDS011;70221;52.002;6.034;2023-05-17T11:31:07;5.93;;;1.47;;
50647;SDS011;70221;52.002;6.034;2023-05-17T11:33:37;5.47;;;1.30;;
50647;SDS011;70221;52.002;6.034;2023-05-17T11:36:12;6.15;;;1.50;;
50647;SDS011;70221;52.002;6.034;2023-05-17T11:38:38;6.07;;;1.30;;
50647;SDS011;70221;52.002;6.034;2023-05-17T11:41:16;5.47;;;1.30;;
50647;SDS011;70221;52.002;6.034;2023-05-17T11:43:44;7.10;;;1.33;;
50647;SDS011;70221;52.002;6.034;2023-05-17T11:46:09;5.47;;;1.33;;
50647;SDS011;70221;52.002;6.034;2023-05-17T11:48:42;6.80;;;1.43;;
50647;SDS011;70221;52.002;6.034;2023-05-17T11:51:07;6.50;;;1.40;;
50647;SDS011;70221;52.002;6.034;2023-05-17T11:53:33;5.23;;;1.43;;
50647;SDS011;70221;52.002;6.034;2023-05-17T11:56:01;6.43;;;1.30;;
50647;SDS011;70221;52.002;6.034;2023-05-17T11:58:27;6.22;;;1.35;;
50647;SDS011;70221;52.002;6.034;2023-05-17T12:00:54;5.43;;;1.23;;
50647;SDS011;70221;52.002;6.034;2023-05-17T12:05:45;5.97;;;1.30;;
50647;SDS011;70221;52.002;6.034;2023-05-17T12:08:11;4.80;;;1.20;;
50647;SDS011;70221;52.002;6.034;2023-05-17T12:10:36;5.20;;;1.23;;
50647;SDS011;70221;52.002;6.034;2023-05-17T12:13:01;5.38;;;1.35;;
50647;SDS011;70221;52.002;6.034;2023-05-17T12:15:27;4.35;;;1.20;;
50647;SDS011;70221;52.002;6.034;2023-05-17T12:17:54;4.93;;;1.30;;
50647;SDS011;70221;52.002;6.034;2023-05-17T12:20:19;4.97;;;1.10;;
50647;SDS011;70221;52.002;6.034;2023-05-17T12:22:54;6.87;;;1.30;;
50647;SDS011;70221;52.002;6.034;2023-05-17T12:25:20;5.63;;;1.20;;
50647;SDS011;70221;52.002;6.034;2023-05-17T12:27:47;5.25;;;1.20;;
50647;SDS011;70221;52.002;6.034;2023-05-17T12:30:14;5.20;;;1.13;;
50647;SDS011;70221;52.002;6.034;2023-05-17T12:32:39;4.77;;;1.20;;
50647;SDS011;70221;52.002;6.034;2023-05-17T12:35:05;5.80;;;1.50;;
50647;SDS011;70221;52.002;6.034;2023-05-17T12:37:30;3.65;;;1.15;;
50647;SDS011;70221;52.002;6.034;2023-05-17T12:39:55;4.33;;;1.20;;
50647;SDS011;70221;52.002;6.034;2023-05-17T12:42:22;5.72;;;1.40;;
50647;SDS011;70221;52.002;6.034;2023-05-17T12:44:47;5.10;;;1.20;;
50647;SDS011;70221;52.002;6.034;2023-05-17T12:47:13;4.40;;;1.07;;
50647;SDS011;70221;52.002;6.034;2023-05-17T12:49:38;4.50;;;1.20;;
50647;SDS011;70221;52.002;6.034;2023-05-17T12:52:04;4.40;;;1.20;;
50647;SDS011;70221;52.002;6.034;2023-05-17T12:54:29;4.17;;;1.10;;
50647;SDS011;70221;52.002;6.034;2023-05-17T12:56:55;5.45;;;1.20;;
50647;SDS011;70221;52.002;6.034;2023-05-17T12:59:21;5.75;;;1.25;;
50647;SDS011;70221;52.002;6.034;2023-05-17T13:01:52;4.80;;;1.27;;
50647;SDS011;70221;52.002;6.034;2023-05-17T13:04:19;6.07;;;1.40;;
50647;SDS011;70221;52.002;6.034;2023-05-17T13:06:49;5.38;;;1.48;;
50647;SDS011;70221;52.002;6.034;2023-05-17T13:09:15;5.50;;;1.27;;
50647;SDS011;70221;52.002;6.034;2023-05-17T13:11:42;5.55;;;1.35;;
50647;SDS011;70221;52.002;6.034;2023-05-17T13:14:07;4.80;;;1.20;;
50647;SDS011;70221;52.002;6.034;2023-05-17T13:16:33;4.37;;;1.30;;
50647;SDS011;70221;52.002;6.034;2023-05-17T13:19:00;4.53;;;1.13;;
50647;SDS011;70221;52.002;6.034;2023-05-17T13:21:26;4.00;;;1.20;;
50647;SDS011;70221;52.002;6.034;2023-05-17T13:23:51;4.00;;;1.10;;
50647;SDS011;70221;52.002;6.034;2023-05-17T13:26:16;5.20;;;1.30;;
50647;SDS011;70221;52.002;6.034;2023-05-17T13:28:42;3.75;;;1.10;;
50647;SDS011;70221;52.002;6.034;2023-05-17T13:31:07;4.20;;;1.20;;
50647;SDS011;70221;52.002;6.034;2023-05-17T13:33:32;4.00;;;1.27;;
50647;SDS011;70221;52.002;6.034;2023-05-17T13:35:57;4.53;;;1.20;;
50647;SDS011;70221;52.002;6.034;2023-05-17T13:38:23;4.63;;;1.33;;
50647;SDS011;70221;52.002;6.034;2023-05-17T13:40:48;3.67;;;1.33;;
50647;SDS011;70221;52.002;6.034;2023-05-17T13:43:13;4.53;;;1.23;;
50647;SDS011;70221;52.002;6.034;2023-05-17T13:45:39;3.93;;;1.23;;
50647;SDS011;70221;52.002;6.034;2023-05-17T13:48:04;3.55;;;1.10;;
50647;SDS011;70221;52.002;6.034;2023-05-17T13:50:29;4.37;;;1.10;;
50647;SDS011;70221;52.002;6.034;2023-05-17T13:52:54;4.37;;;1.33;;
50647;SDS011;70221;52.002;6.034;2023-05-17T13:55:19;4.00;;;1.20;;
50647;SDS011;70221;52.002;6.034;2023-05-17T13:57:45;4.60;;;1.40;;
50647;SDS011;70221;52.002;6.034;2023-05-17T14:00:10;3.87;;;1.20;;
50647;SDS011;70221;52.002;6.034;2023-05-17T14:02:35;4.63;;;1.43;;
50647;SDS011;70221;52.002;6.034;2023-05-17T14:05:01;3.93;;;1.30;;
50647;SDS011;70221;52.002;6.034;2023-05-17T14:07:26;3.73;;;1.10;;
50647;SDS011;70221;52.002;6.034;2023-05-17T14:09:51;4.27;;;1.30;;
50647;SDS011;70221;52.002;6.034;2023-05-17T14:12:16;3.63;;;1.20;;
50647;SDS011;70221;52.002;6.034;2023-05-17T14:14:42;4.27;;;1.20;;
50647;SDS011;70221;52.002;6.034;2023-05-17T14:17:07;3.47;;;1.10;;
50647;SDS011;70221;52.002;6.034;2023-05-17T14:19:32;4.73;;;1.33;;
50647;SDS011;70221;52.002;6.034;2023-05-17T14:21:57;9.13;;;2.10;;
50647;SDS011;70221;52.002;6.034;2023-05-17T14:24:22;10.37;;;2.33;;
50647;SDS011;70221;52.002;6.034;2023-05-17T14:26:48;9.90;;;2.60;;
50647;SDS011;70221;52.002;6.034;2023-05-17T14:29:13;8.37;;;2.57;;
50647;SDS011;70221;52.002;6.034;2023-05-17T14:31:38;9.02;;;2.60;;
50647;SDS011;70221;52.002;6.034;2023-05-17T14:34:03;7.57;;;2.50;;
50647;SDS011;70221;52.002;6.034;2023-05-17T14:36:28;9.53;;;2.77;;
50647;SDS011;70221;52.002;6.034;2023-05-17T14:38:53;10.10;;;2.60;;
50647;SDS011;70221;52.002;6.034;2023-05-17T14:41:19;9.93;;;2.63;;
50647;SDS011;70221;52.002;6.034;2023-05-17T14:43:45;8.63;;;2.60;;
50647;SDS011;70221;52.002;6.034;2023-05-17T14:46:11;8.93;;;2.70;;
50647;SDS011;70221;52.002;6.034;2023-05-17T14:48:36;8.80;;;2.70;;